x

South Santa Rosa Is. Ca (46069) Wave Buoy

2:50 - Thu 21st Aug 2014 All times are PDT. -7 hours from GMT.

  • Sig Wave height 5.2ft
  • Peak Period 11s
  • Average Period 8s
  • Wind
    13mph, 16mph gusts
  • Sea Temp 68°f
  • Luft Temp 64°f
  • Sea Pressure 1013.9mb
  • South Santa Rosa Is. Ca
  • South Santa Rosa Is. Ca

More Historic Weather Station data

Upgrade to MSW Pro to gain access to the past 30 days of data for over 8000 Wavebouys and Weather Stations around the globe.

Join Pro

Comparision Forecast

View Surf forecast
   
Do 08/21 2:50 5ft 11s 8s 13 16 mph 1013.9mb 68f 64f
1:50 5ft 12s 8s 11 13 mph 1014.6mb 68f 64f
12:50 5ft 11s 8s 11 13 mph 1014.6mb 67f 64f
11:50 5ft 11s 9s 11 13 mph 1015mb 67f 64f
10:50 5ft 10s 8s 9 11 mph 1015.1mb 67f 64f
9:50 4.5ft 11s 8s 11 13 mph 1014.5mb 66f 64f
8:50 4.5ft 11s 7s 13 16 mph 1014.3mb 66f 64f
7:50 4ft 12s 7s 13 16 mph 1013.9mb 66f 64f
6:50 4ft 13s 7s 11 13 mph 1013.4mb 66f 64f
5:50 3.5ft 11s 6s 11 13 mph 1012.8mb 66f 64f
4:50 3.5ft 11s 6s 11 13 mph 1012.7mb 66f 64f
3:50 3.5ft 11s 7s 11 13 mph 1013.1mb 66f 64f
2:50 3.5ft 15s 7s 13 16 mph 1013mb 66f 64f
1:50 3.5ft 14s 7s 11 13 mph 1013mb 66f 64f
12:50 3.5ft 14s 6s 11 13 mph 1013.2mb 67f 64f
Mi 08/20 11:50 3ft 15s 6s 13 16 mph 1013mb 67f 65f
10:50 3.5ft 15s 6s 13 16 mph 1013mb 67f 65f
9:50 3.5ft 9s 6s 13 16 mph 1012.9mb 67f 65f
8:50 3.5ft 15s 7s 11 13 mph 1012.8mb 67f 65f
7:50 3.5ft 15s 7s 11 13 mph 1012.2mb 67f 65f
6:50 3.5ft 9s 7s 11
mph
1012.1mb 68f 66f
5:50 3.5ft 15s 8s 11
mph
1012.4mb 68f 66f
4:50 3.5ft 15s 8s 9 11 mph 1012.6mb 68f 66f
3:50 3ft 15s 7s 11 13 mph 1012.7mb 68f 66f
2:50 3ft 15s 8s 9 11 mph 1013.4mb 68f 66f
1:50 3.5ft 13s 8s 9 11 mph 1013.9mb 68f 65f
12:50 3.5ft 14s 8s 7 9 mph 1014.2mb 68f 65f
11:50 3.5ft 14s 8s 7
mph
1014.4mb 67f 65f
10:50 3.5ft 13s 8s 4 7 mph 1014.2mb 67f 64f
9:50 3.5ft 14s 8s 7 9 mph 1013.8mb 67f 64f
8:50 3.5ft 14s 8s 7 9 mph 1013.6mb 67f 64f
7:50 3.5ft 15s 8s 7
mph
1013mb 67f 64f
6:50 3.5ft 15s 7s 7 9 mph 1012.9mb 67f 64f
5:50 3.5ft 15s 7s 7 9 mph 1012.2mb 67f 64f
4:50 4ft 15s 8s 4 9 mph 1012.2mb 67f 64f
3:50 3.5ft 14s 7s 2 4 mph 1011.9mb 67f 64f
2:50 3.5ft 10s 7s 7 9 mph 1011.9mb 67f 63f
1:50 3.5ft 8s 7s 7 9 mph 1011.8mb 66f 63f
12:50 3.5ft 10s 7s 11 13 mph 1012mb 65f 63f
Di 08/19 11:50 3.5ft 15s 6s 9 11 mph 1011.8mb 65f 63f
10:50 3.5ft 15s 6s 13 16 mph 1011.7mb 65f 63f
9:50 3.5ft 9s 5s 18 20 mph 1011.6mb 65f 63f
8:50 3.5ft 8s 5s 16 18 mph 1011.1mb 65f 63f
7:50 4.5ft 15s 6s 16 18 mph 1010.8mb 65f 63f
6:50 4ft 8s 6s 13 16 mph 1010.5mb 66f 64f
5:50 4.5ft 9s 5s 16 18 mph 1010.5mb 66f 64f
4:50 4.5ft 15s 6s 18 20 mph 1010.5mb 66f 63f
3:50 4.5ft 9s 6s 18 20 mph 1010.9mb 65f 63f
2:50 4.5ft 9s 6s 16 18 mph 1011.7mb 65f 63f
1:50 4.5ft 9s 6s 13 16 mph 1012mb 65f 63f
12:50 5ft 8s 7s 13 16 mph 1012.3mb 65f 63f
11:50 5ft 10s 6s 13 16 mph 1012.6mb 65f 62f
10:50 5ft 11s 6s 16 18 mph 1012.4mb 65f 62f
9:50 5ft 9s 6s 16 18 mph 1012.1mb 65f 62f
8:50 5ft 9s 6s 13 16 mph 1011.7mb 65f 61f
7:50 6ft 8s 6s 16 18 mph 1011.3mb 65f 61f
6:50 5.5ft 10s 6s 13 16 mph 1011.2mb 64f 62f
5:50 5ft 11s 5s 16 20 mph 1011mb 64f 61f
4:50 5ft 11s 5s 18 20 mph 1010.8mb 64f 61f
3:50 5ft 6s 5s 18 22 mph 1010.9mb 64f 61f
2:50 5ft 6s 5s 20 25 mph 1010.6mb 64f 60f
1:50 5ft 12s 5s 20 25 mph 1010.5mb 64f 61f
12:50 5ft 12s 5s 20 22 mph 1010.7mb 64f 61f
Mo 08/18 11:50 5ft 6s 5s 20 25 mph 1010.5mb 64f 62f
10:50 5ft 5s 5s 22 25 mph 1010.4mb 65f 62f
9:50 5.5ft 5s 5s 22 27 mph 1010.1mb 65f 62f
8:50 6ft 5s 5s 22 27 mph 1009.8mb 65f 62f
7:50 5.5ft 5s 5s 25 29 mph 1009.2mb 65f 62f
6:50 5.5ft 5s 5s 27 29 mph 1008.9mb 65f 62f
5:50 5.5ft 11s 5s 22 27 mph 1009.4mb 65f 63f
4:50 5ft 5s 5s 20 25 mph 1009.7mb 65f 63f
3:50 5ft 12s 5s 20 25 mph 1010mb 65f 63f
2:50 5ft 11s 5s 20 25 mph 1010.3mb 65f 63f
1:50 5.5ft 7s 5s 22 27 mph 1010.4mb 65f 62f
12:50 5.5ft 7s 5s 20 25 mph 1011.5mb 65f 62f
11:50 5.5ft 6s 5s 20 22 mph 1012mb 64f 62f
10:50 6ft 7s 5s 22 25 mph 1012.1mb 64f 62f
9:50 7ft 7s 6s 22 27 mph 1011.9mb 64f 62f
8:50 7ft 7s 6s 22 27 mph 1011.8mb 65f 62f
7:50 7ft 7s 6s 25 29 mph 1011.2mb 65f 62f
6:50 8ft 7s 6s 22 29 mph 1011mb 65f 62f
5:50 7.5ft 7s 6s 22 27 mph 1010.9mb 65f 62f
4:50 7ft 7s 6s 25 31 mph 1010.6mb 65f 62f
3:50 7.5ft 7s 5s 25 29 mph 1011mb 65f 62f
2:50 7ft 6s 5s 27 31 mph 1010.8mb 65f 62f
1:50 7.5ft 6s 5s 27 31 mph 1010.7mb 65f 62f
12:50 7ft 7s 5s 27 31 mph 1011mb 65f 62f
So 08/17 11:50 7ft 7s 5s 25 29 mph 1011.4mb 65f 62f
10:50 7ft 6s 5s 27 31 mph 1011.3mb 65f 63f